sensor_id;sensor_type;location;lat;lon;timestamp;P1;durP1;ratioP1;P2;durP2;ratioP2
2620;SDS011;1320;48.128;11.592;2023-07-24T00:02:06;18.90;;;8.10;;
2620;SDS011;1320;48.128;11.592;2023-07-24T00:04:32;12.03;;;7.37;;
2620;SDS011;1320;48.128;11.592;2023-07-24T00:06:58;10.40;;;6.87;;
2620;SDS011;1320;48.128;11.592;2023-07-24T00:09:27;12.60;;;7.97;;
2620;SDS011;1320;48.128;11.592;2023-07-24T00:11:52;12.97;;;7.77;;
2620;SDS011;1320;48.128;11.592;2023-07-24T00:14:18;9.90;;;6.80;;
2620;SDS011;1320;48.128;11.592;2023-07-24T00:16:44;11.13;;;7.60;;
2620;SDS011;1320;48.128;11.592;2023-07-24T00:19:09;11.20;;;8.00;;
2620;SDS011;1320;48.128;11.592;2023-07-24T00:21:35;12.77;;;7.70;;
2620;SDS011;1320;48.128;11.592;2023-07-24T00:24:01;11.40;;;7.47;;
2620;SDS011;1320;48.128;11.592;2023-07-24T00:26:26;14.03;;;8.67;;
2620;SDS011;1320;48.128;11.592;2023-07-24T00:28:52;11.10;;;7.10;;
2620;SDS011;1320;48.128;11.592;2023-07-24T00:31:17;11.87;;;7.80;;
2620;SDS011;1320;48.128;11.592;2023-07-24T00:33:43;9.70;;;7.10;;
2620;SDS011;1320;48.128;11.592;2023-07-24T00:36:09;10.43;;;6.10;;
2620;SDS011;1320;48.128;11.592;2023-07-24T00:38:34;10.87;;;7.80;;
2620;SDS011;1320;48.128;11.592;2023-07-24T00:41:00;9.20;;;6.40;;
2620;SDS011;1320;48.128;11.592;2023-07-24T00:43:26;9.90;;;6.30;;
2620;SDS011;1320;48.128;11.592;2023-07-24T00:45:51;13.73;;;7.80;;
2620;SDS011;1320;48.128;11.592;2023-07-24T00:48:18;11.43;;;6.77;;
2620;SDS011;1320;48.128;11.592;2023-07-24T00:50:44;9.57;;;6.50;;
2620;SDS011;1320;48.128;11.592;2023-07-24T00:53:14;9.80;;;6.87;;
2620;SDS011;1320;48.128;11.592;2023-07-24T00:55:41;13.60;;;6.83;;
2620;SDS011;1320;48.128;11.592;2023-07-24T00:58:07;11.63;;;7.10;;
2620;SDS011;1320;48.128;11.592;2023-07-24T01:00:36;12.40;;;7.83;;
2620;SDS011;1320;48.128;11.592;2023-07-24T01:03:05;9.87;;;7.80;;
2620;SDS011;1320;48.128;11.592;2023-07-24T01:05:31;12.33;;;7.60;;
2620;SDS011;1320;48.128;11.592;2023-07-24T01:07:57;9.27;;;6.30;;
2620;SDS011;1320;48.128;11.592;2023-07-24T01:10:23;9.23;;;6.30;;
2620;SDS011;1320;48.128;11.592;2023-07-24T01:15:38;11.03;;;6.27;;
2620;SDS011;1320;48.128;11.592;2023-07-24T01:18:28;9.47;;;6.33;;
2620;SDS011;1320;48.128;11.592;2023-07-24T01:20:55;10.50;;;6.67;;
2620;SDS011;1320;48.128;11.592;2023-07-24T01:26:17;11.73;;;7.33;;
2620;SDS011;1320;48.128;11.592;2023-07-24T01:28:44;10.57;;;7.13;;
2620;SDS011;1320;48.128;11.592;2023-07-24T01:31:10;10.60;;;7.07;;
2620;SDS011;1320;48.128;11.592;2023-07-24T01:33:36;10.30;;;6.90;;
2620;SDS011;1320;48.128;11.592;2023-07-24T01:36:03;13.37;;;6.60;;
2620;SDS011;1320;48.128;11.592;2023-07-24T01:38:33;8.77;;;6.57;;
2620;SDS011;1320;48.128;11.592;2023-07-24T01:41:00;12.07;;;7.30;;
2620;SDS011;1320;48.128;11.592;2023-07-24T01:43:26;10.47;;;7.00;;
2620;SDS011;1320;48.128;11.592;2023-07-24T01:45:53;10.00;;;6.23;;
2620;SDS011;1320;48.128;11.592;2023-07-24T01:48:19;8.07;;;5.70;;
2620;SDS011;1320;48.128;11.592;2023-07-24T01:50:45;10.53;;;6.73;;
2620;SDS011;1320;48.128;11.592;2023-07-24T01:53:10;10.27;;;6.87;;
2620;SDS011;1320;48.128;11.592;2023-07-24T01:55:36;9.23;;;6.70;;
2620;SDS011;1320;48.128;11.592;2023-07-24T01:58:02;12.13;;;6.90;;
2620;SDS011;1320;48.128;11.592;2023-07-24T02:00:27;11.03;;;6.07;;
2620;SDS011;1320;48.128;11.592;2023-07-24T02:02:53;9.63;;;6.23;;
2620;SDS011;1320;48.128;11.592;2023-07-24T02:05:19;9.07;;;6.40;;
2620;SDS011;1320;48.128;11.592;2023-07-24T02:07:44;11.60;;;7.57;;
2620;SDS011;1320;48.128;11.592;2023-07-24T02:10:10;9.80;;;6.13;;
2620;SDS011;1320;48.128;11.592;2023-07-24T02:12:36;9.73;;;6.10;;
2620;SDS011;1320;48.128;11.592;2023-07-24T02:15:01;10.70;;;6.30;;
2620;SDS011;1320;48.128;11.592;2023-07-24T02:17:27;13.10;;;6.73;;
2620;SDS011;1320;48.128;11.592;2023-07-24T02:19:53;12.10;;;6.50;;
2620;SDS011;1320;48.128;11.592;2023-07-24T02:22:19;11.03;;;7.60;;
2620;SDS011;1320;48.128;11.592;2023-07-24T02:24:44;10.13;;;7.30;;
2620;SDS011;1320;48.128;11.592;2023-07-24T02:27:13;11.40;;;7.20;;
2620;SDS011;1320;48.128;11.592;2023-07-24T02:29:49;9.47;;;6.03;;
2620;SDS011;1320;48.128;11.592;2023-07-24T02:32:15;10.10;;;6.70;;
2620;SDS011;1320;48.128;11.592;2023-07-24T02:34:40;12.50;;;6.70;;
2620;SDS011;1320;48.128;11.592;2023-07-24T02:37:06;12.30;;;7.20;;
2620;SDS011;1320;48.128;11.592;2023-07-24T02:39:35;9.40;;;7.27;;
2620;SDS011;1320;48.128;11.592;2023-07-24T02:42:01;15.83;;;7.80;;
2620;SDS011;1320;48.128;11.592;2023-07-24T02:44:27;9.00;;;7.33;;
2620;SDS011;1320;48.128;11.592;2023-07-24T02:46:52;10.07;;;7.27;;
2620;SDS011;1320;48.128;11.592;2023-07-24T02:49:18;10.23;;;6.70;;
2620;SDS011;1320;48.128;11.592;2023-07-24T02:51:43;10.57;;;6.93;;
2620;SDS011;1320;48.128;11.592;2023-07-24T02:54:09;11.30;;;7.60;;
2620;SDS011;1320;48.128;11.592;2023-07-24T02:56:35;15.77;;;8.60;;
2620;SDS011;1320;48.128;11.592;2023-07-24T02:59:00;11.80;;;7.90;;
2620;SDS011;1320;48.128;11.592;2023-07-24T03:01:26;12.83;;;8.33;;
2620;SDS011;1320;48.128;11.592;2023-07-24T03:03:51;12.73;;;8.63;;
2620;SDS011;1320;48.128;11.592;2023-07-24T03:06:17;14.33;;;8.40;;
2620;SDS011;1320;48.128;11.592;2023-07-24T03:08:43;12.90;;;8.37;;
2620;SDS011;1320;48.128;11.592;2023-07-24T03:11:08;12.03;;;8.33;;
2620;SDS011;1320;48.128;11.592;2023-07-24T03:13:34;12.33;;;8.30;;
2620;SDS011;1320;48.128;11.592;2023-07-24T03:15:59;16.30;;;9.10;;
2620;SDS011;1320;48.128;11.592;2023-07-24T03:18:25;13.00;;;7.63;;
2620;SDS011;1320;48.128;11.592;2023-07-24T03:20:51;14.17;;;8.83;;
2620;SDS011;1320;48.128;11.592;2023-07-24T03:23:17;12.87;;;8.67;;
2620;SDS011;1320;48.128;11.592;2023-07-24T03:25:43;14.77;;;10.23;;
2620;SDS011;1320;48.128;11.592;2023-07-24T03:28:09;13.23;;;9.40;;
2620;SDS011;1320;48.128;11.592;2023-07-24T03:30:34;13.73;;;8.40;;
2620;SDS011;1320;48.128;11.592;2023-07-24T03:33:01;17.33;;;10.40;;
2620;SDS011;1320;48.128;11.592;2023-07-24T03:35:26;13.93;;;9.67;;
2620;SDS011;1320;48.128;11.592;2023-07-24T03:37:52;16.50;;;11.90;;
2620;SDS011;1320;48.128;11.592;2023-07-24T03:40:18;13.67;;;9.00;;
2620;SDS011;1320;48.128;11.592;2023-07-24T03:42:43;13.07;;;9.40;;
2620;SDS011;1320;48.128;11.592;2023-07-24T03:45:09;14.73;;;8.87;;
2620;SDS011;1320;48.128;11.592;2023-07-24T03:47:35;15.20;;;9.57;;
2620;SDS011;1320;48.128;11.592;2023-07-24T03:50:00;15.67;;;10.83;;
2620;SDS011;1320;48.128;11.592;2023-07-24T03:52:26;18.30;;;9.70;;
2620;SDS011;1320;48.128;11.592;2023-07-24T03:54:52;15.47;;;10.37;;
2620;SDS011;1320;48.128;11.592;2023-07-24T03:57:18;15.23;;;9.60;;
2620;SDS011;1320;48.128;11.592;2023-07-24T03:59:44;16.87;;;11.33;;
2620;SDS011;1320;48.128;11.592;2023-07-24T04:02:10;15.90;;;9.80;;
2620;SDS011;1320;48.128;11.592;2023-07-24T04:04:36;14.80;;;9.77;;
2620;SDS011;1320;48.128;11.592;2023-07-24T04:07:02;17.70;;;9.30;;
2620;SDS011;1320;48.128;11.592;2023-07-24T04:09:30;17.17;;;10.43;;
2620;SDS011;1320;48.128;11.592;2023-07-24T04:11:55;17.97;;;10.80;;
2620;SDS011;1320;48.128;11.592;2023-07-24T04:14:21;14.23;;;9.97;;
2620;SDS011;1320;48.128;11.592;2023-07-24T04:16:47;15.50;;;10.30;;
2620;SDS011;1320;48.128;11.592;2023-07-24T04:19:13;15.00;;;9.23;;
2620;SDS011;1320;48.128;11.592;2023-07-24T04:21:38;15.43;;;11.20;;
2620;SDS011;1320;48.128;11.592;2023-07-24T04:24:04;14.33;;;9.80;;
2620;SDS011;1320;48.128;11.592;2023-07-24T04:26:30;13.77;;;9.40;;
2620;SDS011;1320;48.128;11.592;2023-07-24T04:28:56;17.60;;;11.30;;
2620;SDS011;1320;48.128;11.592;2023-07-24T04:31:21;15.67;;;10.50;;
2620;SDS011;1320;48.128;11.592;2023-07-24T04:33:47;14.90;;;10.97;;
2620;SDS011;1320;48.128;11.592;2023-07-24T04:36:13;17.07;;;10.80;;
2620;SDS011;1320;48.128;11.592;2023-07-24T04:38:38;18.40;;;11.00;;
2620;SDS011;1320;48.128;11.592;2023-07-24T04:41:04;13.73;;;10.20;;
2620;SDS011;1320;48.128;11.592;2023-07-24T04:43:30;17.30;;;10.63;;
2620;SDS011;1320;48.128;11.592;2023-07-24T04:45:55;16.20;;;9.87;;
2620;SDS011;1320;48.128;11.592;2023-07-24T04:48:21;14.63;;;9.40;;
2620;SDS011;1320;48.128;11.592;2023-07-24T04:50:52;18.70;;;11.20;;
2620;SDS011;1320;48.128;11.592;2023-07-24T04:53:19;14.43;;;9.40;;
2620;SDS011;1320;48.128;11.592;2023-07-24T04:55:45;17.43;;;10.13;;
2620;SDS011;1320;48.128;11.592;2023-07-24T04:58:11;19.50;;;11.77;;
2620;SDS011;1320;48.128;11.592;2023-07-24T05:00:36;13.40;;;9.43;;
2620;SDS011;1320;48.128;11.592;2023-07-24T05:03:02;16.63;;;9.17;;
2620;SDS011;1320;48.128;11.592;2023-07-24T05:05:28;14.60;;;10.20;;
2620;SDS011;1320;48.128;11.592;2023-07-24T05:07:53;16.70;;;10.13;;
2620;SDS011;1320;48.128;11.592;2023-07-24T05:10:19;15.13;;;8.60;;
2620;SDS011;1320;48.128;11.592;2023-07-24T05:12:45;14.70;;;10.30;;
2620;SDS011;1320;48.128;11.592;2023-07-24T05:15:10;13.40;;;9.30;;
2620;SDS011;1320;48.128;11.592;2023-07-24T05:17:36;15.70;;;9.60;;
2620;SDS011;1320;48.128;11.592;2023-07-24T05:20:02;14.83;;;9.67;;
2620;SDS011;1320;48.128;11.592;2023-07-24T05:22:28;15.40;;;10.50;;
2620;SDS011;1320;48.128;11.592;2023-07-24T05:24:53;15.13;;;9.50;;
2620;SDS011;1320;48.128;11.592;2023-07-24T05:27:19;13.30;;;9.40;;
2620;SDS011;1320;48.128;11.592;2023-07-24T05:29:44;15.37;;;8.70;;
2620;SDS011;1320;48.128;11.592;2023-07-24T05:32:10;17.20;;;10.27;;
2620;SDS011;1320;48.128;11.592;2023-07-24T05:34:36;12.33;;;8.80;;
2620;SDS011;1320;48.128;11.592;2023-07-24T05:37:01;13.53;;;9.50;;
2620;SDS011;1320;48.128;11.592;2023-07-24T05:39:29;15.20;;;9.30;;
2620;SDS011;1320;48.128;11.592;2023-07-24T05:41:54;15.50;;;8.50;;
2620;SDS011;1320;48.128;11.592;2023-07-24T05:44:20;15.73;;;9.00;;
2620;SDS011;1320;48.128;11.592;2023-07-24T05:46:46;16.83;;;8.87;;
2620;SDS011;1320;48.128;11.592;2023-07-24T05:49:11;13.30;;;9.00;;
2620;SDS011;1320;48.128;11.592;2023-07-24T05:51:37;15.03;;;10.60;;
2620;SDS011;1320;48.128;11.592;2023-07-24T05:54:03;12.43;;;8.57;;
2620;SDS011;1320;48.128;11.592;2023-07-24T05:56:28;12.47;;;8.73;;
2620;SDS011;1320;48.128;11.592;2023-07-24T05:58:54;13.63;;;9.43;;
2620;SDS011;1320;48.128;11.592;2023-07-24T06:01:19;14.83;;;9.10;;
2620;SDS011;1320;48.128;11.592;2023-07-24T06:03:45;17.40;;;10.30;;
2620;SDS011;1320;48.128;11.592;2023-07-24T06:06:11;10.90;;;8.40;;
2620;SDS011;1320;48.128;11.592;2023-07-24T06:08:36;13.10;;;8.73;;
2620;SDS011;1320;48.128;11.592;2023-07-24T06:11:02;12.43;;;8.03;;
2620;SDS011;1320;48.128;11.592;2023-07-24T06:13:27;11.67;;;9.00;;
2620;SDS011;1320;48.128;11.592;2023-07-24T06:15:53;12.03;;;8.90;;
2620;SDS011;1320;48.128;11.592;2023-07-24T06:18:19;13.00;;;9.27;;
2620;SDS011;1320;48.128;11.592;2023-07-24T06:20:44;12.27;;;8.60;;
2620;SDS011;1320;48.128;11.592;2023-07-24T06:23:10;12.27;;;8.30;;
2620;SDS011;1320;48.128;11.592;2023-07-24T06:25:36;16.07;;;9.27;;
2620;SDS011;1320;48.128;11.592;2023-07-24T06:28:02;12.07;;;8.53;;
2620;SDS011;1320;48.128;11.592;2023-07-24T06:30:27;12.90;;;8.67;;
2620;SDS011;1320;48.128;11.592;2023-07-24T06:32:53;13.10;;;9.03;;
2620;SDS011;1320;48.128;11.592;2023-07-24T06:35:19;13.80;;;9.33;;
2620;SDS011;1320;48.128;11.592;2023-07-24T06:37:44;13.40;;;8.83;;
2620;SDS011;1320;48.128;11.592;2023-07-24T06:40:10;12.40;;;8.67;;
2620;SDS011;1320;48.128;11.592;2023-07-24T06:42:36;13.50;;;8.70;;
2620;SDS011;1320;48.128;11.592;2023-07-24T06:45:02;14.00;;;8.87;;
2620;SDS011;1320;48.128;11.592;2023-07-24T06:47:28;15.33;;;8.63;;
2620;SDS011;1320;48.128;11.592;2023-07-24T06:49:54;12.33;;;7.80;;
2620;SDS011;1320;48.128;11.592;2023-07-24T06:52:19;12.03;;;8.60;;
2620;SDS011;1320;48.128;11.592;2023-07-24T06:54:45;12.50;;;9.63;;
2620;SDS011;1320;48.128;11.592;2023-07-24T06:57:10;14.37;;;9.00;;
2620;SDS011;1320;48.128;11.592;2023-07-24T06:59:36;12.93;;;9.80;;
2620;SDS011;1320;48.128;11.592;2023-07-24T07:02:02;15.63;;;9.30;;
2620;SDS011;1320;48.128;11.592;2023-07-24T07:04:28;12.93;;;8.97;;
2620;SDS011;1320;48.128;11.592;2023-07-24T07:06:53;14.27;;;9.00;;
2620;SDS011;1320;48.128;11.592;2023-07-24T07:09:19;16.30;;;9.50;;
2620;SDS011;1320;48.128;11.592;2023-07-24T07:11:45;15.40;;;9.07;;
2620;SDS011;1320;48.128;11.592;2023-07-24T07:14:10;10.60;;;8.07;;
2620;SDS011;1320;48.128;11.592;2023-07-24T07:16:36;13.47;;;8.90;;
2620;SDS011;1320;48.128;11.592;2023-07-24T07:19:02;13.03;;;8.73;;
2620;SDS011;1320;48.128;11.592;2023-07-24T07:21:27;12.90;;;8.73;;
2620;SDS011;1320;48.128;11.592;2023-07-24T07:23:53;12.17;;;9.13;;
2620;SDS011;1320;48.128;11.592;2023-07-24T07:26:19;14.47;;;9.07;;
2620;SDS011;1320;48.128;11.592;2023-07-24T07:28:45;12.00;;;9.20;;
2620;SDS011;1320;48.128;11.592;2023-07-24T07:31:11;13.77;;;9.07;;
2620;SDS011;1320;48.128;11.592;2023-07-24T07:33:37;15.10;;;10.80;;
2620;SDS011;1320;48.128;11.592;2023-07-24T07:36:02;13.43;;;9.47;;
2620;SDS011;1320;48.128;11.592;2023-07-24T07:38:31;11.97;;;8.80;;
2620;SDS011;1320;48.128;11.592;2023-07-24T07:40:57;14.57;;;10.40;;
2620;SDS011;1320;48.128;11.592;2023-07-24T07:43:23;12.07;;;9.37;;
2620;SDS011;1320;48.128;11.592;2023-07-24T07:45:48;21.07;;;8.87;;
2620;SDS011;1320;48.128;11.592;2023-07-24T07:48:14;12.00;;;9.00;;
2620;SDS011;1320;48.128;11.592;2023-07-24T07:50:40;13.60;;;8.17;;
2620;SDS011;1320;48.128;11.592;2023-07-24T07:53:08;12.97;;;9.03;;
2620;SDS011;1320;48.128;11.592;2023-07-24T07:55:36;11.87;;;8.50;;
2620;SDS011;1320;48.128;11.592;2023-07-24T07:58:03;16.47;;;10.10;;
2620;SDS011;1320;48.128;11.592;2023-07-24T08:00:30;11.83;;;9.20;;
2620;SDS011;1320;48.128;11.592;2023-07-24T08:02:56;13.17;;;9.23;;
2620;SDS011;1320;48.128;11.592;2023-07-24T08:05:21;14.80;;;9.40;;
2620;SDS011;1320;48.128;11.592;2023-07-24T08:07:47;18.43;;;9.33;;
2620;SDS011;1320;48.128;11.592;2023-07-24T08:10:13;14.13;;;9.93;;
2620;SDS011;1320;48.128;11.592;2023-07-24T08:12:40;16.37;;;8.83;;
2620;SDS011;1320;48.128;11.592;2023-07-24T08:15:06;13.10;;;8.93;;
2620;SDS011;1320;48.128;11.592;2023-07-24T08:17:32;16.73;;;9.23;;
2620;SDS011;1320;48.128;11.592;2023-07-24T08:19:57;16.13;;;10.03;;
2620;SDS011;1320;48.128;11.592;2023-07-24T08:22:23;12.97;;;9.23;;
2620;SDS011;1320;48.128;11.592;2023-07-24T08:24:49;13.30;;;9.47;;
2620;SDS011;1320;48.128;11.592;2023-07-24T08:27:16;13.27;;;9.23;;
2620;SDS011;1320;48.128;11.592;2023-07-24T08:29:42;12.70;;;10.00;;
2620;SDS011;1320;48.128;11.592;2023-07-24T08:32:08;14.50;;;8.57;;
2620;SDS011;1320;48.128;11.592;2023-07-24T08:34:33;11.50;;;8.50;;
2620;SDS011;1320;48.128;11.592;2023-07-24T08:36:59;13.00;;;8.20;;
2620;SDS011;1320;48.128;11.592;2023-07-24T08:39:25;13.30;;;8.30;;
2620;SDS011;1320;48.128;11.592;2023-07-24T08:41:50;12.77;;;7.73;;
2620;SDS011;1320;48.128;11.592;2023-07-24T08:44:16;14.20;;;9.53;;
2620;SDS011;1320;48.128;11.592;2023-07-24T08:46:42;12.30;;;7.60;;
2620;SDS011;1320;48.128;11.592;2023-07-24T08:49:11;12.37;;;8.53;;
2620;SDS011;1320;48.128;11.592;2023-07-24T08:51:38;11.47;;;8.33;;
2620;SDS011;1320;48.128;11.592;2023-07-24T08:54:08;14.70;;;9.93;;
2620;SDS011;1320;48.128;11.592;2023-07-24T08:56:38;15.77;;;9.20;;
2620;SDS011;1320;48.128;11.592;2023-07-24T08:59:06;11.90;;;7.60;;
2620;SDS011;1320;48.128;11.592;2023-07-24T09:01:32;12.33;;;8.30;;
2620;SDS011;1320;48.128;11.592;2023-07-24T09:03:58;13.30;;;9.03;;
2620;SDS011;1320;48.128;11.592;2023-07-24T09:06:25;12.63;;;8.67;;
2620;SDS011;1320;48.128;11.592;2023-07-24T09:08:53;15.23;;;8.83;;
2620;SDS011;1320;48.128;11.592;2023-07-24T09:11:19;11.17;;;8.00;;
2620;SDS011;1320;48.128;11.592;2023-07-24T09:13:44;14.87;;;10.03;;
2620;SDS011;1320;48.128;11.592;2023-07-24T09:16:23;15.07;;;9.67;;
2620;SDS011;1320;48.128;11.592;2023-07-24T09:18:50;13.87;;;8.60;;
2620;SDS011;1320;48.128;11.592;2023-07-24T09:21:26;11.63;;;8.10;;
2620;SDS011;1320;48.128;11.592;2023-07-24T09:23:55;10.93;;;8.30;;
2620;SDS011;1320;48.128;11.592;2023-07-24T09:26:20;12.80;;;9.00;;
2620;SDS011;1320;48.128;11.592;2023-07-24T09:28:52;10.30;;;7.80;;
2620;SDS011;1320;48.128;11.592;2023-07-24T09:31:19;12.40;;;8.57;;
2620;SDS011;1320;48.128;11.592;2023-07-24T09:33:44;12.57;;;7.50;;
2620;SDS011;1320;48.128;11.592;2023-07-24T09:36:11;11.47;;;7.53;;
2620;SDS011;1320;48.128;11.592;2023-07-24T09:38:38;9.90;;;7.20;;
2620;SDS011;1320;48.128;11.592;2023-07-24T09:41:04;11.27;;;6.77;;
2620;SDS011;1320;48.128;11.592;2023-07-24T09:43:30;8.83;;;6.27;;
2620;SDS011;1320;48.128;11.592;2023-07-24T09:45:57;8.70;;;6.30;;
2620;SDS011;1320;48.128;11.592;2023-07-24T09:48:23;10.77;;;7.37;;
2620;SDS011;1320;48.128;11.592;2023-07-24T09:50:55;11.40;;;7.20;;
2620;SDS011;1320;48.128;11.592;2023-07-24T09:56:06;8.23;;;5.00;;
2620;SDS011;1320;48.128;11.592;2023-07-24T09:58:33;8.37;;;5.80;;
2620;SDS011;1320;48.128;11.592;2023-07-24T10:01:02;7.50;;;5.40;;
2620;SDS011;1320;48.128;11.592;2023-07-24T10:03:30;7.57;;;5.47;;
2620;SDS011;1320;48.128;11.592;2023-07-24T10:05:59;10.00;;;5.90;;
2620;SDS011;1320;48.128;11.592;2023-07-24T10:08:25;6.17;;;4.63;;
2620;SDS011;1320;48.128;11.592;2023-07-24T10:10:51;9.00;;;5.67;;
2620;SDS011;1320;48.128;11.592;2023-07-24T10:13:18;7.87;;;4.40;;
2620;SDS011;1320;48.128;11.592;2023-07-24T10:15:46;6.23;;;4.20;;
2620;SDS011;1320;48.128;11.592;2023-07-24T10:18:14;5.80;;;4.30;;
2620;SDS011;1320;48.128;11.592;2023-07-24T10:20:42;6.23;;;4.20;;
2620;SDS011;1320;48.128;11.592;2023-07-24T10:23:09;8.53;;;4.30;;
2620;SDS011;1320;48.128;11.592;2023-07-24T10:25:37;7.03;;;4.27;;
2620;SDS011;1320;48.128;11.592;2023-07-24T10:28:09;6.60;;;4.63;;
2620;SDS011;1320;48.128;11.592;2023-07-24T10:30:40;7.17;;;4.13;;
2620;SDS011;1320;48.128;11.592;2023-07-24T10:33:20;7.57;;;5.03;;
2620;SDS011;1320;48.128;11.592;2023-07-24T10:36:04;7.90;;;4.87;;
2620;SDS011;1320;48.128;11.592;2023-07-24T10:38:35;6.33;;;4.70;;
2620;SDS011;1320;48.128;11.592;2023-07-24T10:41:08;7.17;;;5.27;;
2620;SDS011;1320;48.128;11.592;2023-07-24T10:46:09;7.53;;;4.73;;
2620;SDS011;1320;48.128;11.592;2023-07-24T10:48:35;6.50;;;4.80;;
2620;SDS011;1320;48.128;11.592;2023-07-24T10:51:08;7.00;;;5.23;;
2620;SDS011;1320;48.128;11.592;2023-07-24T10:53:35;7.67;;;5.20;;
2620;SDS011;1320;48.128;11.592;2023-07-24T10:56:02;10.03;;;5.80;;
2620;SDS011;1320;48.128;11.592;2023-07-24T10:58:29;8.80;;;7.40;;
2620;SDS011;1320;48.128;11.592;2023-07-24T11:00:56;6.87;;;5.00;;
2620;SDS011;1320;48.128;11.592;2023-07-24T11:03:22;8.93;;;5.40;;
2620;SDS011;1320;48.128;11.592;2023-07-24T11:05:49;8.57;;;5.80;;
2620;SDS011;1320;48.128;11.592;2023-07-24T11:08:16;12.70;;;10.57;;
2620;SDS011;1320;48.128;11.592;2023-07-24T11:10:44;8.40;;;6.00;;
2620;SDS011;1320;48.128;11.592;2023-07-24T11:13:14;10.20;;;5.03;;
2620;SDS011;1320;48.128;11.592;2023-07-24T11:15:40;8.17;;;5.37;;
2620;SDS011;1320;48.128;11.592;2023-07-24T11:18:06;8.03;;;5.83;;
2620;SDS011;1320;48.128;11.592;2023-07-24T11:20:38;8.77;;;5.60;;
2620;SDS011;1320;48.128;11.592;2023-07-24T11:23:12;8.50;;;5.27;;
2620;SDS011;1320;48.128;11.592;2023-07-24T11:25:39;6.53;;;4.87;;
2620;SDS011;1320;48.128;11.592;2023-07-24T11:28:05;7.63;;;5.50;;
2620;SDS011;1320;48.128;11.592;2023-07-24T11:30:32;7.90;;;5.63;;
2620;SDS011;1320;48.128;11.592;2023-07-24T11:33:09;6.87;;;5.50;;
2620;SDS011;1320;48.128;11.592;2023-07-24T11:35:35;7.90;;;5.37;;
2620;SDS011;1320;48.128;11.592;2023-07-24T11:38:03;7.23;;;4.97;;
2620;SDS011;1320;48.128;11.592;2023-07-24T11:40:33;8.30;;;5.57;;
2620;SDS011;1320;48.128;11.592;2023-07-24T11:43:03;8.80;;;6.20;;
2620;SDS011;1320;48.128;11.592;2023-07-24T11:45:29;7.20;;;5.27;;
2620;SDS011;1320;48.128;11.592;2023-07-24T11:47:56;8.90;;;5.73;;
2620;SDS011;1320;48.128;11.592;2023-07-24T11:50:22;8.63;;;4.97;;
2620;SDS011;1320;48.128;11.592;2023-07-24T11:52:49;7.00;;;4.83;;
2620;SDS011;1320;48.128;11.592;2023-07-24T11:55:22;6.73;;;5.20;;
2620;SDS011;1320;48.128;11.592;2023-07-24T11:57:59;6.83;;;4.77;;
2620;SDS011;1320;48.128;11.592;2023-07-24T12:00:27;6.47;;;4.50;;
2620;SDS011;1320;48.128;11.592;2023-07-24T12:02:59;7.00;;;5.03;;
2620;SDS011;1320;48.128;11.592;2023-07-24T12:05:25;6.30;;;4.53;;
2620;SDS011;1320;48.128;11.592;2023-07-24T12:07:53;6.33;;;4.47;;
2620;SDS011;1320;48.128;11.592;2023-07-24T12:10:26;9.97;;;5.57;;
2620;SDS011;1320;48.128;11.592;2023-07-24T12:12:53;7.33;;;4.80;;
2620;SDS011;1320;48.128;11.592;2023-07-24T12:15:19;7.90;;;4.70;;
2620;SDS011;1320;48.128;11.592;2023-07-24T12:17:44;7.70;;;4.50;;
2620;SDS011;1320;48.128;11.592;2023-07-24T12:20:10;9.60;;;5.43;;
2620;SDS011;1320;48.128;11.592;2023-07-24T12:22:37;10.27;;;6.30;;
2620;SDS011;1320;48.128;11.592;2023-07-24T12:25:03;6.63;;;4.70;;
2620;SDS011;1320;48.128;11.592;2023-07-24T12:27:31;8.80;;;5.60;;
2620;SDS011;1320;48.128;11.592;2023-07-24T12:29:57;6.80;;;4.40;;
2620;SDS011;1320;48.128;11.592;2023-07-24T12:32:23;6.33;;;4.40;;
2620;SDS011;1320;48.128;11.592;2023-07-24T12:34:49;6.97;;;4.90;;
2620;SDS011;1320;48.128;11.592;2023-07-24T12:37:19;7.83;;;4.73;;
2620;SDS011;1320;48.128;11.592;2023-07-24T12:39:45;7.53;;;5.50;;
2620;SDS011;1320;48.128;11.592;2023-07-24T12:42:12;9.27;;;6.27;;
2620;SDS011;1320;48.128;11.592;2023-07-24T12:44:38;7.70;;;4.90;;
2620;SDS011;1320;48.128;11.592;2023-07-24T12:47:04;8.10;;;5.63;;
2620;SDS011;1320;48.128;11.592;2023-07-24T12:49:30;6.90;;;5.10;;
2620;SDS011;1320;48.128;11.592;2023-07-24T12:51:56;9.33;;;5.40;;
2620;SDS011;1320;48.128;11.592;2023-07-24T12:54:22;8.27;;;5.20;;
2620;SDS011;1320;48.128;11.592;2023-07-24T12:56:51;7.00;;;5.47;;
2620;SDS011;1320;48.128;11.592;2023-07-24T12:59:17;10.10;;;6.10;;
2620;SDS011;1320;48.128;11.592;2023-07-24T13:01:43;8.63;;;5.50;;
2620;SDS011;1320;48.128;11.592;2023-07-24T13:04:09;8.67;;;6.17;;
2620;SDS011;1320;48.128;11.592;2023-07-24T13:06:35;7.10;;;4.67;;
2620;SDS011;1320;48.128;11.592;2023-07-24T13:09:01;7.50;;;5.20;;
2620;SDS011;1320;48.128;11.592;2023-07-24T13:11:26;8.07;;;5.27;;
2620;SDS011;1320;48.128;11.592;2023-07-24T13:13:55;10.73;;;5.90;;
2620;SDS011;1320;48.128;11.592;2023-07-24T13:16:21;9.67;;;5.70;;
2620;SDS011;1320;48.128;11.592;2023-07-24T13:18:47;7.97;;;5.20;;
2620;SDS011;1320;48.128;11.592;2023-07-24T13:21:12;8.50;;;6.07;;
2620;SDS011;1320;48.128;11.592;2023-07-24T13:23:39;9.40;;;6.63;;
2620;SDS011;1320;48.128;11.592;2023-07-24T13:26:05;7.43;;;5.30;;
2620;SDS011;1320;48.128;11.592;2023-07-24T13:28:33;11.10;;;4.97;;
2620;SDS011;1320;48.128;11.592;2023-07-24T13:30:59;9.80;;;7.23;;
2620;SDS011;1320;48.128;11.592;2023-07-24T13:33:35;8.83;;;5.47;;
2620;SDS011;1320;48.128;11.592;2023-07-24T13:36:00;8.40;;;5.77;;
2620;SDS011;1320;48.128;11.592;2023-07-24T13:38:26;8.70;;;6.00;;
2620;SDS011;1320;48.128;11.592;2023-07-24T13:40:52;7.07;;;4.77;;
2620;SDS011;1320;48.128;11.592;2023-07-24T13:43:17;8.37;;;5.70;;
2620;SDS011;1320;48.128;11.592;2023-07-24T13:45:43;8.83;;;6.27;;
2620;SDS011;1320;48.128;11.592;2023-07-24T13:48:09;6.23;;;4.97;;
2620;SDS011;1320;48.128;11.592;2023-07-24T13:50:34;5.97;;;4.20;;
2620;SDS011;1320;48.128;11.592;2023-07-24T13:53:00;7.30;;;4.73;;
2620;SDS011;1320;48.128;11.592;2023-07-24T13:55:26;7.30;;;5.00;;
2620;SDS011;1320;48.128;11.592;2023-07-24T13:57:51;8.80;;;5.40;;
2620;SDS011;1320;48.128;11.592;2023-07-24T14:00:17;8.13;;;5.40;;
2620;SDS011;1320;48.128;11.592;2023-07-24T14:02:43;7.83;;;5.93;;
2620;SDS011;1320;48.128;11.592;2023-07-24T14:05:08;7.33;;;4.77;;
2620;SDS011;1320;48.128;11.592;2023-07-24T14:07:34;7.87;;;3.80;;
2620;SDS011;1320;48.128;11.592;2023-07-24T14:10:00;5.13;;;3.80;;
2620;SDS011;1320;48.128;11.592;2023-07-24T14:12:25;8.30;;;5.33;;
2620;SDS011;1320;48.128;11.592;2023-07-24T14:14:51;6.37;;;3.80;;
2620;SDS011;1320;48.128;11.592;2023-07-24T14:17:17;11.57;;;3.73;;
2620;SDS011;1320;48.128;11.592;2023-07-24T14:19:44;5.40;;;3.83;;
2620;SDS011;1320;48.128;11.592;2023-07-24T14:22:09;5.93;;;3.93;;
2620;SDS011;1320;48.128;11.592;2023-07-24T14:24:35;4.70;;;3.60;;
2620;SDS011;1320;48.128;11.592;2023-07-24T14:27:01;6.90;;;3.30;;
2620;SDS011;1320;48.128;11.592;2023-07-24T14:29:26;5.77;;;3.67;;
2620;SDS011;1320;48.128;11.592;2023-07-24T14:31:52;4.90;;;3.60;;
2620;SDS011;1320;48.128;11.592;2023-07-24T14:34:18;6.43;;;3.70;;
2620;SDS011;1320;48.128;11.592;2023-07-24T14:36:43;5.77;;;3.50;;
2620;SDS011;1320;48.128;11.592;2023-07-24T14:39:09;6.57;;;3.40;;
2620;SDS011;1320;48.128;11.592;2023-07-24T14:41:35;5.57;;;3.77;;
2620;SDS011;1320;48.128;11.592;2023-07-24T14:44:00;5.53;;;3.53;;
2620;SDS011;1320;48.128;11.592;2023-07-24T14:46:26;5.37;;;3.70;;
2620;SDS011;1320;48.128;11.592;2023-07-24T14:48:52;5.57;;;4.10;;
2620;SDS011;1320;48.128;11.592;2023-07-24T14:51:17;7.33;;;4.47;;
2620;SDS011;1320;48.128;11.592;2023-07-24T14:53:43;5.63;;;3.07;;
2620;SDS011;1320;48.128;11.592;2023-07-24T14:56:08;6.13;;;3.67;;
2620;SDS011;1320;48.128;11.592;2023-07-24T14:58:34;6.77;;;3.57;;